Corona, CA (92880)

11:32 AM PDT on August 27, 2016 (GMT -0700)
| | Change Station

Elev -9999 ft 0.00 °N, 0.00 °E | Updated

Clear
Clear
82 °F
Feels Like 82 °F
N
12
Wind Variable Wind from West
Gusts mph

Today
High -- | Low -- °F
--% Chance of Precip.
Yesterday
High -- | Low -- °F
Precip. -- in
Pressure 30.05 in
Visibility 10.0 miles
Clouds Overcast 2200 ft
Heat Index 82 °F
Dew Point 58 °F
Humidity 45%
Rainfall --
Snow Depth Not available.
6:21 AM 7:21 PM
Waning Crescent, 22% visible
METAR KAJO 271756Z AUTO 00000KT 10SM OVC022 21/14 A3002 RMK AO2 SLP174 T02060144 10206 20167 50004 $
Pressure 30.05 in
Visibility 10.0 miles
Clouds Overcast 2200 ft
Heat Index 82 °F
Dew Point 58 °F
Humidity 45%
Rainfall --
Snow Depth Not available.
6:21 AM 7:21 PM
Waning Crescent, 22% visible
METAR KAJO 271756Z AUTO 00000KT 10SM OVC022 21/14 A3002 RMK AO2 SLP174 T02060144 10206 20167 50004 $

10-Day Weather Forecast

Almanac

Astronomy

Aug. 27, 2016 Rise Set
Actual Time
Civil Twilight
Nautical Twilight
Astronomical Twilight
Moon
Length of Visible Light
Length of Day
Tomorrow will be .
, % of the Moon is Illuminated

Today's Extremes

State Highs State Lows

Community

WunderPhotos

Upload Photos

1,935,396 photos uploaded!

WunderBlog® & News

Nearby

Air Quality

  Air Quality AQ Index Pollutant
Not available.

Snow Depth

Station Depth Elevation

Earthquake Activity

City Distance Mag. Time & Date
Minimum magnitude displayed is 2.5.

Coastal Water Temperatures

Place Temperature

Stations

Nearby Weather Stations

Station Location Temp. Windchill Dew Point Humidity Wind Precip. Elev Updated Type
                   

Watches & Warnings

There are currently no watches in effect.